createdAt,value
2018-09-30T00:00:35.710Z,4.20
2018-09-30T00:03:05.466Z,3.57
2018-09-30T00:05:35.302Z,3.30
2018-09-30T00:08:05.386Z,3.17
2018-09-30T00:10:35.178Z,3.10
2018-09-30T00:13:04.957Z,3.80
2018-09-30T00:15:34.884Z,3.00
2018-09-30T00:18:04.678Z,3.20
2018-09-30T00:20:34.757Z,3.20
2018-09-30T00:23:04.531Z,3.20
2018-09-30T00:25:39.286Z,3.30
2018-09-30T00:28:09.470Z,2.97
2018-09-30T00:30:39.259Z,3.20
2018-09-30T00:33:09.130Z,3.00
2018-09-30T00:35:39.273Z,3.23
2018-09-30T00:38:09.062Z,2.90
2018-09-30T00:40:38.874Z,3.40
2018-09-30T00:43:08.639Z,3.60
2018-09-30T00:45:38.859Z,3.40
2018-09-30T00:48:08.611Z,3.13
2018-09-30T00:50:38.402Z,3.20
2018-09-30T00:53:08.603Z,3.30
2018-09-30T00:55:38.354Z,3.13
2018-09-30T00:58:08.122Z,3.17
2018-09-30T01:00:37.934Z,3.57
2018-09-30T01:03:07.686Z,2.93
2018-09-30T01:05:37.783Z,3.43
2018-09-30T01:08:07.560Z,3.30
2018-09-30T01:10:37.329Z,3.20
2018-09-30T01:13:07.146Z,2.73
2018-09-30T01:15:37.022Z,3.10
2018-09-30T01:18:06.825Z,2.80
2018-09-30T01:20:36.640Z,2.90
2018-09-30T01:23:06.770Z,2.93
2018-09-30T01:25:36.570Z,2.60
2018-09-30T01:28:06.594Z,2.83
2018-09-30T01:30:36.391Z,2.83
2018-09-30T01:33:06.194Z,3.17
2018-09-30T01:35:35.999Z,3.37
2018-09-30T01:38:07.174Z,2.73
2018-09-30T01:40:37.006Z,2.47
2018-09-30T01:43:06.783Z,2.93
2018-09-30T01:45:36.603Z,2.60
2018-09-30T01:48:06.954Z,2.70
2018-09-30T01:50:36.714Z,2.50
2018-09-30T01:53:06.474Z,2.73
2018-09-30T01:55:36.292Z,2.73
2018-09-30T01:58:06.394Z,12.73
2018-09-30T02:00:36.254Z,3.57
2018-09-30T02:03:06.079Z,4.00
2018-09-30T02:05:36.320Z,3.90
2018-09-30T02:08:06.170Z,2.90
2018-09-30T02:10:35.941Z,2.83
2018-09-30T02:13:05.699Z,2.63
2018-09-30T02:15:35.488Z,2.80
2018-09-30T02:18:05.311Z,2.60
2018-09-30T02:20:35.203Z,2.70
2018-09-30T02:23:06.386Z,2.53
2018-09-30T02:25:36.886Z,2.83
2018-09-30T02:28:06.661Z,3.30
2018-09-30T02:30:36.430Z,3.10
2018-09-30T02:33:06.202Z,2.67
2018-09-30T02:35:36.418Z,2.40
2018-09-30T02:38:06.235Z,2.50
2018-09-30T02:40:36.032Z,2.77
2018-09-30T02:43:05.818Z,2.97
2018-09-30T02:45:35.655Z,2.93
2018-09-30T02:48:05.467Z,3.03
2018-09-30T02:50:35.608Z,2.93
2018-09-30T02:53:08.107Z,2.70
2018-09-30T02:55:39.623Z,2.70
2018-09-30T02:58:09.674Z,2.33
2018-09-30T03:00:39.838Z,2.87
2018-09-30T03:03:09.578Z,3.03
2018-09-30T03:05:39.339Z,2.27
2018-09-30T03:08:14.349Z,3.03
2018-09-30T03:10:44.134Z,2.77
2018-09-30T03:13:13.911Z,3.13
2018-09-30T03:15:43.687Z,2.60
2018-09-30T03:18:13.526Z,2.50
2018-09-30T03:20:43.658Z,2.70
2018-09-30T03:23:13.710Z,2.70
2018-09-30T03:25:43.462Z,3.00
2018-09-30T03:28:13.247Z,3.07
2018-09-30T03:30:43.034Z,2.70
2018-09-30T03:33:13.235Z,3.10
2018-09-30T03:35:43.011Z,2.73
2018-09-30T03:38:12.803Z,2.50
2018-09-30T03:40:42.615Z,3.43
2018-09-30T03:43:12.379Z,2.80
2018-09-30T03:45:42.163Z,2.90
2018-09-30T03:48:12.334Z,2.80
2018-09-30T03:50:42.100Z,3.40
2018-09-30T03:53:11.866Z,2.83
2018-09-30T03:55:41.623Z,3.00
2018-09-30T03:58:11.738Z,2.70
2018-09-30T04:00:41.514Z,3.53
2018-09-30T04:03:11.291Z,3.03
2018-09-30T04:05:41.494Z,2.70
2018-09-30T04:08:11.303Z,3.10
2018-09-30T04:10:41.087Z,3.10
2018-09-30T04:13:10.854Z,2.90
2018-09-30T04:15:40.951Z,3.00
2018-09-30T04:18:10.728Z,3.60
2018-09-30T04:20:40.926Z,2.90
2018-09-30T04:23:10.687Z,3.03
2018-09-30T04:25:40.466Z,3.30
2018-09-30T04:28:10.262Z,3.20
2018-09-30T04:30:40.080Z,2.60
2018-09-30T04:33:10.294Z,3.40
2018-09-30T04:35:40.082Z,3.00
2018-09-30T04:38:09.831Z,3.60
2018-09-30T04:40:39.715Z,3.50
2018-09-30T04:43:09.537Z,3.70
2018-09-30T04:45:39.414Z,3.30
2018-09-30T04:48:09.610Z,3.67
2018-09-30T04:50:39.386Z,3.20
2018-09-30T04:53:09.211Z,4.10
2018-09-30T04:55:39.092Z,3.73
2018-09-30T04:58:09.003Z,3.67
2018-09-30T05:00:39.230Z,3.90
2018-09-30T05:03:09.071Z,3.67
2018-09-30T05:05:38.891Z,3.43
2018-09-30T05:08:08.753Z,3.30
2018-09-30T05:10:39.044Z,3.60
2018-09-30T05:13:08.864Z,3.70
2018-09-30T05:15:38.703Z,3.93
2018-09-30T05:18:08.630Z,3.63
2018-09-30T05:20:38.378Z,3.23
2018-09-30T05:23:08.211Z,3.70
2018-09-30T05:25:38.509Z,3.37
2018-09-30T05:28:08.279Z,3.50
2018-09-30T05:30:38.083Z,3.33
2018-09-30T05:33:08.191Z,3.93
2018-09-30T05:35:37.950Z,3.70
2018-09-30T05:38:07.813Z,3.77
2018-09-30T05:40:37.598Z,3.27
2018-09-30T05:43:07.870Z,3.50
2018-09-30T05:45:37.642Z,3.73
2018-09-30T05:48:07.370Z,3.60
2018-09-30T05:50:37.198Z,3.70
2018-09-30T05:53:07.106Z,3.57
2018-09-30T05:55:36.942Z,3.50
2018-09-30T05:58:07.265Z,3.27
2018-09-30T06:00:39.103Z,4.07
2018-09-30T06:03:10.031Z,3.80
2018-09-30T06:05:40.039Z,3.50
2018-09-30T06:08:10.418Z,3.87
2018-09-30T06:10:40.206Z,3.80
2018-09-30T06:13:10.507Z,3.63
2018-09-30T06:15:41.300Z,3.60
2018-09-30T06:18:11.683Z,3.83
2018-09-30T06:20:41.598Z,3.57
2018-09-30T06:23:11.614Z,3.70
2018-09-30T06:25:42.015Z,3.37
2018-09-30T06:28:12.466Z,3.73
2018-09-30T06:30:42.331Z,3.47
2018-09-30T06:33:12.318Z,3.90
2018-09-30T06:35:43.031Z,3.60
2018-09-30T06:38:12.830Z,3.43
2018-09-30T06:40:43.470Z,3.40
2018-09-30T06:43:13.482Z,3.50
2018-09-30T06:45:43.435Z,3.53
2018-09-30T06:48:13.518Z,3.60
2018-09-30T06:50:43.348Z,3.40
2018-09-30T06:53:13.119Z,3.80
2018-09-30T06:55:43.378Z,3.50
2018-09-30T06:58:13.209Z,3.50
2018-09-30T07:00:43.026Z,3.83
2018-09-30T07:03:12.795Z,3.33
2018-09-30T07:05:42.607Z,4.07
2018-09-30T07:08:12.399Z,3.43
2018-09-30T07:10:42.783Z,3.47
2018-09-30T07:13:12.564Z,3.47
2018-09-30T07:15:42.310Z,3.47
2018-09-30T07:18:12.090Z,3.80
2018-09-30T07:20:42.195Z,3.50
2018-09-30T07:23:11.998Z,3.77
2018-09-30T07:25:41.766Z,3.50
2018-09-30T07:28:11.827Z,4.00
2018-09-30T07:30:41.571Z,3.30
2018-09-30T07:33:11.415Z,3.30
2018-09-30T07:35:41.280Z,5.07
2018-09-30T07:38:12.174Z,3.77
2018-09-30T07:40:42.679Z,3.40
2018-09-30T07:43:12.538Z,3.10
2018-09-30T07:45:42.624Z,3.27
2018-09-30T07:48:13.038Z,3.40
2018-09-30T07:50:42.794Z,3.13
2018-09-30T07:53:12.687Z,3.20
2018-09-30T07:55:43.276Z,2.83
2018-09-30T07:58:13.166Z,8.13
2018-09-30T08:00:44.506Z,3.40
2018-09-30T08:03:14.562Z,3.60
2018-09-30T08:05:44.354Z,2.97
2018-09-30T08:08:14.262Z,3.43
2018-09-30T08:10:44.474Z,3.23
2018-09-30T08:13:14.398Z,3.67
2018-09-30T08:15:44.307Z,3.47
2018-09-30T08:18:14.451Z,3.20
2018-09-30T08:20:44.207Z,3.53
2018-09-30T08:23:14.042Z,4.03
2018-09-30T08:25:44.177Z,3.27
2018-09-30T08:28:13.984Z,3.33
2018-09-30T08:30:43.795Z,4.00
2018-09-30T08:33:13.733Z,3.00
2018-09-30T08:35:45.625Z,3.70
2018-09-30T08:38:20.588Z,3.40
2018-09-30T08:40:55.354Z,3.57
2018-09-30T08:43:26.663Z,3.80
2018-09-30T08:45:56.558Z,3.53
2018-09-30T08:48:26.466Z,3.30
2018-09-30T08:50:56.826Z,3.37
2018-09-30T08:53:27.092Z,3.20
2018-09-30T08:55:57.542Z,3.87
2018-09-30T08:58:28.232Z,3.40
2018-09-30T09:00:58.086Z,3.50
2018-09-30T09:03:28.298Z,3.80
2018-09-30T09:05:59.102Z,3.83
2018-09-30T09:08:29.018Z,3.63
2018-09-30T09:10:58.785Z,3.67
2018-09-30T09:13:28.594Z,3.70
2018-09-30T09:15:58.480Z,3.53
2018-09-30T09:18:28.339Z,3.30
2018-09-30T09:20:58.246Z,4.07
2018-09-30T09:23:28.298Z,3.40
2018-09-30T09:25:58.155Z,3.50
2018-09-30T09:28:28.259Z,3.70
2018-09-30T09:30:58.184Z,3.60
2018-09-30T09:33:28.376Z,3.40
2018-09-30T09:35:58.216Z,4.03
2018-09-30T09:38:28.095Z,3.73
2018-09-30T09:40:58.251Z,3.37
2018-09-30T09:43:28.191Z,3.03
2018-09-30T09:45:57.998Z,3.10
2018-09-30T09:48:28.207Z,2.90
2018-09-30T09:50:58.035Z,3.33
2018-09-30T09:53:27.945Z,3.00
2018-09-30T09:55:57.751Z,3.37
2018-09-30T09:58:27.551Z,3.80
2018-09-30T10:01:00.347Z,3.80
2018-09-30T10:03:30.155Z,3.80
2018-09-30T10:05:59.971Z,3.40
2018-09-30T10:08:30.214Z,3.57
2018-09-30T10:11:00.034Z,3.50
2018-09-30T10:13:29.895Z,3.60
2018-09-30T10:16:00.146Z,3.70
2018-09-30T10:18:30.012Z,3.60
2018-09-30T10:20:59.914Z,4.07
2018-09-30T10:23:30.007Z,4.10
2018-09-30T10:26:00.049Z,3.90
2018-09-30T10:28:29.906Z,3.77
2018-09-30T10:31:00.079Z,3.77
2018-09-30T10:33:29.963Z,5.93
2018-09-30T10:35:59.783Z,4.13
2018-09-30T10:38:30.146Z,3.97
2018-09-30T10:41:00.433Z,3.80
2018-09-30T10:43:30.295Z,4.10
2018-09-30T10:46:00.525Z,4.53
2018-09-30T10:48:30.793Z,3.90
2018-09-30T10:51:00.698Z,3.70
2018-09-30T10:53:30.506Z,3.77
2018-09-30T10:56:00.311Z,3.50
2018-09-30T10:58:30.214Z,4.20
2018-09-30T11:01:00.034Z,3.60
2018-09-30T11:03:30.026Z,3.87
2018-09-30T11:06:00.328Z,3.73
2018-09-30T11:08:30.355Z,3.70
2018-09-30T11:11:00.286Z,3.70
2018-09-30T11:13:30.183Z,4.07
2018-09-30T11:16:00.042Z,3.57
2018-09-30T11:18:30.131Z,4.10
2018-09-30T11:21:00.251Z,3.80
2018-09-30T11:23:30.011Z,3.83
2018-09-30T11:25:59.888Z,3.73
2018-09-30T11:28:29.969Z,3.83
2018-09-30T11:30:59.767Z,3.97
2018-09-30T11:33:29.551Z,3.67
2018-09-30T11:35:59.431Z,4.03
2018-09-30T11:38:29.219Z,3.73
2018-09-30T11:40:59.010Z,3.60
2018-09-30T11:43:28.844Z,3.70
2018-09-30T11:46:00.549Z,3.70
2018-09-30T11:48:30.848Z,3.70
2018-09-30T11:51:00.754Z,3.80
2018-09-30T11:53:30.668Z,3.90
2018-09-30T11:56:00.610Z,4.00
2018-09-30T11:58:30.707Z,4.33
2018-09-30T12:01:02.437Z,4.33
2018-09-30T12:03:32.589Z,3.93
2018-09-30T12:06:02.859Z,4.00
2018-09-30T12:08:33.411Z,3.83
2018-09-30T12:11:03.282Z,3.80
2018-09-30T12:13:33.447Z,3.50
2018-09-30T12:16:03.202Z,4.20
2018-09-30T12:18:33.860Z,3.57
2018-09-30T12:21:03.985Z,3.97
2018-09-30T12:23:34.112Z,3.60
2018-09-30T12:26:04.210Z,3.50
2018-09-30T12:28:34.383Z,3.93
2018-09-30T12:31:04.206Z,3.73
2018-09-30T12:33:33.990Z,4.20
2018-09-30T12:36:06.876Z,3.20
2018-09-30T12:38:36.695Z,4.00
2018-09-30T12:41:06.538Z,4.30
2018-09-30T12:43:36.631Z,4.47
2018-09-30T12:46:06.442Z,3.80
2018-09-30T12:48:36.469Z,4.00
2018-09-30T12:51:06.292Z,3.87
2018-09-30T12:53:36.265Z,3.47
2018-09-30T12:56:06.102Z,3.30
2018-09-30T12:58:35.905Z,3.27
2018-09-30T13:01:05.703Z,3.73
2018-09-30T13:03:35.855Z,3.53
2018-09-30T13:06:05.706Z,3.93
2018-09-30T13:08:35.483Z,3.60
2018-09-30T13:11:07.126Z,3.57
2018-09-30T13:13:36.988Z,3.40
2018-09-30T13:16:06.931Z,3.30
2018-09-30T13:18:37.178Z,3.03
2018-09-30T13:21:07.073Z,3.60
2018-09-30T13:23:36.944Z,3.00
2018-09-30T13:26:06.810Z,3.40
2018-09-30T13:28:36.618Z,3.33
2018-09-30T13:31:06.423Z,3.77
2018-09-30T13:33:36.553Z,3.93
2018-09-30T13:36:06.475Z,3.40
2018-09-30T13:38:36.382Z,3.30
2018-09-30T13:41:06.757Z,3.40
2018-09-30T13:43:36.455Z,3.47
2018-09-30T13:46:06.365Z,3.07
2018-09-30T13:48:36.475Z,3.50
2018-09-30T13:51:06.274Z,3.70
2018-09-30T13:53:36.077Z,3.30
2018-09-30T13:56:06.174Z,3.37
2018-09-30T13:58:36.122Z,3.20
2018-09-30T14:01:05.924Z,3.30
2018-09-30T14:03:36.124Z,3.60
2018-09-30T14:06:05.941Z,3.73
2018-09-30T14:08:35.755Z,3.43
2018-09-30T14:11:06.068Z,3.77
2018-09-30T14:13:35.892Z,2.90
2018-09-30T14:16:05.697Z,3.70
2018-09-30T14:18:35.819Z,3.70
2018-09-30T14:21:05.742Z,3.13
2018-09-30T14:23:35.591Z,3.30
2018-09-30T14:26:05.601Z,3.70
2018-09-30T14:28:35.703Z,3.73
2018-09-30T14:31:05.503Z,3.70
2018-09-30T14:33:35.319Z,3.70
2018-09-30T14:36:05.425Z,3.43
2018-09-30T14:38:35.186Z,3.17
2018-09-30T14:41:05.106Z,3.50
2018-09-30T14:43:35.182Z,3.30
2018-09-30T14:46:05.062Z,3.33
2018-09-30T14:48:34.968Z,3.00
2018-09-30T14:51:04.711Z,3.13
2018-09-30T14:53:34.485Z,2.80
2018-09-30T14:56:04.642Z,3.60
2018-09-30T14:58:34.458Z,2.80
2018-09-30T15:01:04.274Z,2.93
2018-09-30T15:03:34.090Z,2.73
2018-09-30T15:06:03.932Z,2.63
2018-09-30T15:08:33.847Z,3.03
2018-09-30T15:11:04.050Z,2.90
2018-09-30T15:13:33.847Z,2.63
2018-09-30T15:16:03.674Z,2.93
2018-09-30T15:18:33.526Z,2.90
2018-09-30T15:21:03.476Z,2.97
2018-09-30T15:23:33.727Z,3.13
2018-09-30T15:26:03.524Z,3.03
2018-09-30T15:28:33.446Z,2.93
2018-09-30T15:31:03.519Z,2.70
2018-09-30T15:33:33.399Z,2.23
2018-09-30T15:36:03.190Z,3.23
2018-09-30T15:38:33.246Z,2.77
2018-09-30T15:41:03.018Z,2.93
2018-09-30T15:43:32.882Z,2.80
2018-09-30T15:46:02.998Z,3.00
2018-09-30T15:48:32.847Z,2.73
2018-09-30T15:51:02.691Z,2.77
2018-09-30T15:53:33.074Z,2.70
2018-09-30T15:56:03.060Z,2.90
2018-09-30T15:58:32.869Z,2.50
2018-09-30T16:01:02.992Z,2.77
2018-09-30T16:03:32.808Z,3.00
2018-09-30T16:06:02.898Z,2.73
2018-09-30T16:08:33.193Z,3.10
2018-09-30T16:11:03.114Z,2.97
2018-09-30T16:13:32.894Z,2.77
2018-09-30T16:16:02.742Z,2.80
2018-09-30T16:18:32.610Z,2.90
2018-09-30T16:21:02.491Z,2.80
2018-09-30T16:23:32.307Z,2.70
2018-09-30T16:26:02.158Z,2.93
2018-09-30T16:28:32.287Z,3.23
2018-09-30T16:31:02.123Z,2.93
2018-09-30T16:33:31.923Z,3.00
2018-09-30T16:36:01.939Z,2.87
2018-09-30T16:38:31.837Z,2.60
2018-09-30T16:41:01.640Z,3.00
2018-09-30T16:43:31.742Z,3.30
2018-09-30T16:46:01.526Z,3.27
2018-09-30T16:48:31.326Z,3.67
2018-09-30T16:51:01.390Z,3.87
2018-09-30T16:53:31.320Z,4.47
2018-09-30T16:56:01.273Z,4.73
2018-09-30T16:58:31.387Z,4.70
2018-09-30T17:01:01.281Z,4.70
2018-09-30T17:03:31.114Z,4.67
2018-09-30T17:06:01.473Z,4.90
2018-09-30T17:08:31.348Z,5.67
2018-09-30T17:11:01.160Z,5.20
2018-09-30T17:13:31.335Z,5.50
2018-09-30T17:16:01.281Z,6.30
2018-09-30T17:18:31.076Z,6.03
2018-09-30T17:21:01.194Z,6.37
2018-09-30T17:23:31.252Z,5.77
2018-09-30T17:26:01.054Z,6.33
2018-09-30T17:28:31.361Z,6.10
2018-09-30T17:31:01.541Z,5.63
2018-09-30T17:33:31.884Z,5.97
2018-09-30T17:36:02.033Z,5.73
2018-09-30T17:38:31.894Z,5.70
2018-09-30T17:41:01.679Z,5.70
2018-09-30T17:43:31.924Z,5.83
2018-09-30T17:46:01.691Z,5.63
2018-09-30T17:48:31.524Z,5.37
2018-09-30T17:51:01.827Z,5.20
2018-09-30T17:53:31.622Z,5.67
2018-09-30T17:56:01.426Z,5.97
2018-09-30T17:58:31.798Z,6.27
2018-09-30T18:01:01.565Z,5.23
2018-09-30T18:03:31.346Z,5.40
2018-09-30T18:06:01.431Z,5.10
2018-09-30T18:08:31.234Z,6.23
2018-09-30T18:11:01.111Z,6.50
2018-09-30T18:13:31.214Z,6.03
2018-09-30T18:16:01.350Z,6.60
2018-09-30T18:18:31.186Z,6.90
2018-09-30T18:21:01.404Z,7.30
2018-09-30T18:23:31.199Z,7.00
2018-09-30T18:26:01.082Z,7.27
2018-09-30T18:28:30.930Z,7.07
2018-09-30T18:31:00.737Z,7.17
2018-09-30T18:33:30.786Z,6.77
2018-09-30T18:36:00.630Z,7.97
2018-09-30T18:38:30.478Z,8.13
2018-09-30T18:41:00.390Z,7.40
2018-09-30T18:43:30.777Z,7.00
2018-09-30T18:46:00.935Z,7.40
2018-09-30T18:48:30.749Z,7.77
2018-09-30T18:51:00.538Z,7.37
2018-09-30T18:53:30.670Z,6.53
2018-09-30T18:56:00.513Z,8.03
2018-09-30T18:58:30.381Z,6.60
2018-09-30T19:01:00.202Z,6.90
2018-09-30T19:03:30.014Z,7.50
2018-09-30T19:06:00.104Z,7.63
2018-09-30T19:08:29.903Z,7.67
2018-09-30T19:10:59.660Z,7.30
2018-09-30T19:13:29.618Z,7.13
2018-09-30T19:15:59.457Z,7.73
2018-09-30T19:18:29.972Z,8.57
2018-09-30T19:21:00.216Z,8.00
2018-09-30T19:23:30.045Z,8.13
2018-09-30T19:26:00.415Z,8.80
2018-09-30T19:28:30.527Z,9.63
2018-09-30T19:31:00.877Z,9.27
2018-09-30T19:33:32.863Z,9.40
2018-09-30T19:36:03.125Z,9.50
2018-09-30T19:38:33.234Z,9.60
2018-09-30T19:41:03.342Z,9.23
2018-09-30T19:43:33.154Z,9.43
2018-09-30T19:46:02.984Z,9.30
2018-09-30T19:48:33.086Z,9.23
2018-09-30T19:51:03.622Z,8.60
2018-09-30T19:53:34.074Z,8.77
2018-09-30T19:56:03.927Z,8.70
2018-09-30T19:58:33.870Z,10.03
2018-09-30T20:01:03.807Z,8.70
2018-09-30T20:03:33.646Z,8.67
2018-09-30T20:06:03.954Z,8.83
2018-09-30T20:08:34.754Z,8.57
2018-09-30T20:11:04.752Z,8.70
2018-09-30T20:13:34.534Z,7.93
2018-09-30T20:16:05.053Z,8.30
2018-09-30T20:18:35.154Z,8.27
2018-09-30T20:21:05.380Z,7.77
2018-09-30T20:23:35.410Z,8.17
2018-09-30T20:26:05.478Z,8.43
2018-09-30T20:28:36.194Z,7.60
2018-09-30T20:31:06.712Z,8.63
2018-09-30T20:33:36.941Z,7.90
2018-09-30T20:36:06.802Z,8.20
2018-09-30T20:38:36.867Z,7.40
2018-09-30T20:41:06.949Z,8.27
2018-09-30T20:43:36.750Z,8.07
2018-09-30T20:46:07.228Z,8.37
2018-09-30T20:48:38.004Z,7.67
2018-09-30T20:51:08.411Z,8.37
2018-09-30T20:53:38.605Z,9.17
2018-09-30T20:56:09.139Z,8.30
2018-09-30T21:05:55.296Z,8.47
2018-09-30T21:08:27.658Z,9.57
2018-09-30T21:10:59.737Z,9.13
2018-09-30T21:13:32.667Z,8.37
2018-09-30T21:16:03.059Z,9.73
2018-09-30T21:18:35.699Z,9.27
2018-09-30T21:21:05.678Z,9.10
2018-09-30T21:23:36.320Z,10.77
2018-09-30T21:26:06.296Z,9.33
2018-09-30T21:28:36.510Z,8.67
2018-09-30T21:31:08.670Z,8.77
2018-09-30T21:33:38.779Z,8.53
2018-09-30T21:36:08.703Z,8.43
2018-09-30T21:38:39.158Z,8.80
2018-09-30T21:41:09.455Z,9.50
2018-09-30T21:43:39.466Z,9.20
2018-09-30T21:46:09.338Z,8.43
2018-09-30T21:48:39.142Z,9.00
2018-09-30T21:51:09.446Z,8.90
2018-09-30T21:53:39.195Z,8.40
2018-09-30T21:56:09.547Z,8.43
2018-09-30T21:58:39.292Z,9.10
2018-09-30T22:01:10.157Z,9.47
2018-09-30T22:03:39.961Z,9.00
2018-09-30T22:06:10.326Z,8.63
2018-09-30T22:08:41.144Z,8.23
2018-09-30T22:11:11.096Z,8.67
2018-09-30T22:13:41.140Z,9.03
2018-09-30T22:16:11.233Z,8.67
2018-09-30T22:18:41.866Z,8.87
2018-09-30T22:21:13.354Z,8.53
2018-09-30T22:23:44.026Z,9.23
2018-09-30T22:26:14.438Z,8.80
2018-09-30T22:28:44.757Z,9.20
2018-09-30T22:31:15.191Z,8.80
2018-09-30T22:33:45.409Z,9.57
2018-09-30T22:36:15.793Z,9.03
2018-09-30T22:38:46.053Z,9.30
2018-09-30T22:41:16.217Z,9.40
2018-09-30T22:43:46.933Z,8.60
2018-09-30T22:46:17.061Z,9.63
2018-09-30T22:48:47.688Z,9.70
2018-09-30T22:51:18.295Z,9.37
2018-09-30T22:53:48.774Z,10.03
2018-09-30T22:56:19.081Z,9.40
2018-09-30T22:58:49.385Z,9.40
2018-09-30T23:01:19.314Z,9.63
2018-09-30T23:03:49.136Z,8.80
2018-09-30T23:06:19.648Z,9.93
2018-09-30T23:08:49.857Z,9.93
2018-09-30T23:11:19.803Z,9.90
2018-09-30T23:13:50.602Z,9.07
2018-09-30T23:16:21.316Z,9.70
2018-09-30T23:18:51.624Z,8.63
2018-09-30T23:21:22.574Z,9.97
2018-09-30T23:23:52.413Z,8.90
2018-09-30T23:26:22.672Z,9.33
2018-09-30T23:28:52.975Z,8.80
2018-09-30T23:31:23.501Z,9.23
2018-09-30T23:33:53.941Z,9.20
2018-09-30T23:36:24.437Z,8.97
2018-09-30T23:38:54.489Z,9.00
2018-09-30T23:41:24.831Z,8.77
2018-09-30T23:43:55.199Z,9.07
2018-09-30T23:46:25.383Z,8.77
2018-09-30T23:48:55.758Z,9.43
2018-09-30T23:51:26.425Z,10.07
2018-09-30T23:53:56.437Z,9.50
2018-09-30T23:56:26.491Z,9.10
2018-09-30T23:58:56.862Z,10.17
